sensor_id;sensor_type;location;lat;lon;timestamp;P1;durP1;ratioP1;P2;durP2;ratioP2
19946;SDS011;10135;50.702;7.276;2022-09-12T05:30:43;8.07;;;6.53;;
19946;SDS011;10135;50.702;7.276;2022-09-12T05:32:44;10.60;;;6.23;;
19946;SDS011;10135;50.702;7.276;2022-09-12T05:34:44;9.70;;;7.00;;
19946;SDS011;10135;50.702;7.276;2022-09-12T05:36:45;10.83;;;6.90;;
19946;SDS011;10135;50.702;7.276;2022-09-12T05:38:46;8.67;;;6.83;;
19946;SDS011;10135;50.702;7.276;2022-09-12T05:40:47;9.87;;;7.30;;
19946;SDS011;10135;50.702;7.276;2022-09-12T05:42:48;9.00;;;7.07;;
19946;SDS011;10135;50.702;7.276;2022-09-12T05:44:48;11.57;;;7.10;;
19946;SDS011;10135;50.702;7.276;2022-09-12T05:46:49;8.80;;;7.07;;
19946;SDS011;10135;50.702;7.276;2022-09-12T05:48:50;7.77;;;6.37;;
19946;SDS011;10135;50.702;7.276;2022-09-12T05:51:00;9.73;;;6.83;;
19946;SDS011;10135;50.702;7.276;2022-09-12T05:53:03;8.40;;;6.70;;
19946;SDS011;10135;50.702;7.276;2022-09-12T05:55:03;10.40;;;7.37;;
19946;SDS011;10135;50.702;7.276;2022-09-12T05:57:05;9.80;;;7.10;;
19946;SDS011;10135;50.702;7.276;2022-09-12T05:59:07;9.93;;;7.07;;
19946;SDS011;10135;50.702;7.276;2022-09-12T06:01:28;8.37;;;6.60;;
19946;SDS011;10135;50.702;7.276;2022-09-12T06:03:31;8.47;;;7.00;;
19946;SDS011;10135;50.702;7.276;2022-09-12T06:05:31;10.03;;;6.93;;
19946;SDS011;10135;50.702;7.276;2022-09-12T06:07:33;9.30;;;6.67;;
19946;SDS011;10135;50.702;7.276;2022-09-12T06:09:35;9.07;;;7.00;;
19946;SDS011;10135;50.702;7.276;2022-09-12T06:11:36;8.47;;;6.53;;
19946;SDS011;10135;50.702;7.276;2022-09-12T06:13:41;9.27;;;6.60;;
19946;SDS011;10135;50.702;7.276;2022-09-12T06:15:43;8.13;;;6.60;;
19946;SDS011;10135;50.702;7.276;2022-09-12T06:17:43;8.27;;;6.50;;
19946;SDS011;10135;50.702;7.276;2022-09-12T06:19:47;11.00;;;7.47;;
19946;SDS011;10135;50.702;7.276;2022-09-12T06:21:51;8.50;;;6.50;;
19946;SDS011;10135;50.702;7.276;2022-09-12T06:23:52;9.30;;;5.90;;
19946;SDS011;10135;50.702;7.276;2022-09-12T06:25:54;7.47;;;6.47;;
19946;SDS011;10135;50.702;7.276;2022-09-12T06:27:54;7.30;;;6.30;;
19946;SDS011;10135;50.702;7.276;2022-09-12T06:29:55;7.33;;;5.80;;
19946;SDS011;10135;50.702;7.276;2022-09-12T06:31:56;7.17;;;6.20;;
19946;SDS011;10135;50.702;7.276;2022-09-12T06:34:04;7.57;;;6.07;;
19946;SDS011;10135;50.702;7.276;2022-09-12T06:36:09;9.03;;;6.10;;
19946;SDS011;10135;50.702;7.276;2022-09-12T06:38:13;10.90;;;6.10;;
19946;SDS011;10135;50.702;7.276;2022-09-12T06:40:13;7.37;;;6.00;;
19946;SDS011;10135;50.702;7.276;2022-09-12T06:42:14;8.37;;;6.47;;
19946;SDS011;10135;50.702;7.276;2022-09-12T06:44:19;8.40;;;6.00;;
19946;SDS011;10135;50.702;7.276;2022-09-12T06:46:22;8.23;;;6.50;;
19946;SDS011;10135;50.702;7.276;2022-09-12T06:48:23;8.13;;;5.90;;
19946;SDS011;10135;50.702;7.276;2022-09-12T06:50:24;8.63;;;6.17;;
19946;SDS011;10135;50.702;7.276;2022-09-12T06:52:25;8.23;;;5.97;;
19946;SDS011;10135;50.702;7.276;2022-09-12T06:54:28;8.03;;;6.00;;
19946;SDS011;10135;50.702;7.276;2022-09-12T06:56:28;8.10;;;5.50;;
19946;SDS011;10135;50.702;7.276;2022-09-12T06:58:30;6.87;;;5.70;;
19946;SDS011;10135;50.702;7.276;2022-09-12T07:00:31;7.70;;;5.63;;
19946;SDS011;10135;50.702;7.276;2022-09-12T07:02:32;7.60;;;6.13;;
19946;SDS011;10135;50.702;7.276;2022-09-12T07:04:32;8.27;;;5.80;;
19946;SDS011;10135;50.702;7.276;2022-09-12T07:06:41;7.67;;;5.50;;
19946;SDS011;10135;50.702;7.276;2022-09-12T07:08:43;9.67;;;5.77;;
19946;SDS011;10135;50.702;7.276;2022-09-12T07:10:44;8.43;;;6.00;;
19946;SDS011;10135;50.702;7.276;2022-09-12T07:12:45;7.13;;;5.87;;
19946;SDS011;10135;50.702;7.276;2022-09-12T07:14:46;6.30;;;5.70;;
19946;SDS011;10135;50.702;7.276;2022-09-12T07:16:47;6.97;;;5.67;;
19946;SDS011;10135;50.702;7.276;2022-09-12T07:18:53;7.37;;;5.43;;
19946;SDS011;10135;50.702;7.276;2022-09-12T07:20:58;8.47;;;5.90;;
19946;SDS011;10135;50.702;7.276;2022-09-12T07:23:02;8.70;;;6.30;;
19946;SDS011;10135;50.702;7.276;2022-09-12T07:25:03;8.13;;;5.90;;
19946;SDS011;10135;50.702;7.276;2022-09-12T07:27:04;6.80;;;5.53;;
19946;SDS011;10135;50.702;7.276;2022-09-12T07:29:05;6.57;;;5.83;;
19946;SDS011;10135;50.702;7.276;2022-09-12T07:31:06;7.07;;;5.80;;
19946;SDS011;10135;50.702;7.276;2022-09-12T07:33:09;8.63;;;5.93;;
19946;SDS011;10135;50.702;7.276;2022-09-12T07:35:10;6.87;;;5.77;;
19946;SDS011;10135;50.702;7.276;2022-09-12T07:37:11;7.87;;;6.17;;
19946;SDS011;10135;50.702;7.276;2022-09-12T07:39:12;7.37;;;6.33;;
19946;SDS011;10135;50.702;7.276;2022-09-12T07:41:13;12.17;;;6.27;;
19946;SDS011;10135;50.702;7.276;2022-09-12T07:43:18;8.83;;;6.57;;
19946;SDS011;10135;50.702;7.276;2022-09-12T07:45:19;7.03;;;5.80;;
19946;SDS011;10135;50.702;7.276;2022-09-12T07:47:19;7.53;;;6.07;;
19946;SDS011;10135;50.702;7.276;2022-09-12T07:49:20;6.47;;;5.87;;
19946;SDS011;10135;50.702;7.276;2022-09-12T07:51:21;10.00;;;6.17;;
19946;SDS011;10135;50.702;7.276;2022-09-12T07:53:23;8.07;;;5.27;;
19946;SDS011;10135;50.702;7.276;2022-09-12T07:55:24;6.93;;;5.50;;
19946;SDS011;10135;50.702;7.276;2022-09-12T07:57:24;6.33;;;5.50;;
19946;SDS011;10135;50.702;7.276;2022-09-12T07:59:25;6.10;;;5.50;;
19946;SDS011;10135;50.702;7.276;2022-09-12T08:01:26;6.73;;;5.20;;
19946;SDS011;10135;50.702;7.276;2022-09-12T08:03:27;6.47;;;5.77;;
19946;SDS011;10135;50.702;7.276;2022-09-12T08:05:28;7.60;;;5.90;;
19946;SDS011;10135;50.702;7.276;2022-09-12T08:07:29;6.05;;;5.40;;
19946;SDS011;10135;50.702;7.276;2022-09-12T08:09:29;7.30;;;5.72;;
19946;SDS011;10135;50.702;7.276;2022-09-12T08:11:30;7.35;;;5.50;;
19946;SDS011;10135;50.702;7.276;2022-09-12T08:13:32;6.18;;;5.55;;
19946;SDS011;10135;50.702;7.276;2022-09-12T08:15:34;6.87;;;5.00;;
19946;SDS011;10135;50.702;7.276;2022-09-12T08:17:35;6.88;;;5.43;;
19946;SDS011;10135;50.702;7.276;2022-09-12T08:19:36;5.85;;;5.25;;
19946;SDS011;10135;50.702;7.276;2022-09-12T08:21:37;7.00;;;5.45;;
19946;SDS011;10135;50.702;7.276;2022-09-12T08:23:38;6.50;;;5.50;;
19946;SDS011;10135;50.702;7.276;2022-09-12T08:25:39;5.43;;;4.93;;
19946;SDS011;10135;50.702;7.276;2022-09-12T08:27:40;6.00;;;5.30;;
19946;SDS011;10135;50.702;7.276;2022-09-12T08:29:42;5.30;;;4.80;;
19946;SDS011;10135;50.702;7.276;2022-09-12T08:31:42;7.82;;;5.35;;
19946;SDS011;10135;50.702;7.276;2022-09-12T08:33:43;6.13;;;5.43;;
19946;SDS011;10135;50.702;7.276;2022-09-12T08:35:44;5.68;;;5.00;;
19946;SDS011;10135;50.702;7.276;2022-09-12T08:37:46;5.70;;;4.97;;
19946;SDS011;10135;50.702;7.276;2022-09-12T08:39:47;4.95;;;4.40;;
19946;SDS011;10135;50.702;7.276;2022-09-12T08:41:48;5.05;;;4.65;;
19946;SDS011;10135;50.702;7.276;2022-09-12T08:46:17;6.13;;;4.95;;
19946;SDS011;10135;50.702;7.276;2022-09-12T08:48:26;5.25;;;4.75;;
19946;SDS011;10135;50.702;7.276;2022-09-12T08:50:26;5.18;;;4.68;;
19946;SDS011;10135;50.702;7.276;2022-09-12T08:52:38;6.63;;;5.10;;
19946;SDS011;10135;50.702;7.276;2022-09-12T08:55:26;5.07;;;4.68;;
19946;SDS011;10135;50.702;7.276;2022-09-12T08:57:34;5.30;;;4.90;;
19946;SDS011;10135;50.702;7.276;2022-09-12T08:59:39;5.35;;;4.85;;
19946;SDS011;10135;50.702;7.276;2022-09-12T09:01:45;5.00;;;4.55;;
19946;SDS011;10135;50.702;7.276;2022-09-12T09:04:00;4.95;;;4.43;;
19946;SDS011;10135;50.702;7.276;2022-09-12T09:06:24;5.13;;;4.72;;
19946;SDS011;10135;50.702;7.276;2022-09-12T09:11:56;5.05;;;4.63;;
19946;SDS011;10135;50.702;7.276;2022-09-12T09:16:40;4.70;;;4.40;;
19946;SDS011;10135;50.702;7.276;2022-09-12T09:18:45;5.00;;;4.60;;
19946;SDS011;10135;50.702;7.276;2022-09-12T09:20:53;4.57;;;4.18;;
19946;SDS011;10135;50.702;7.276;2022-09-12T09:25:25;4.35;;;4.03;;
19946;SDS011;10135;50.702;7.276;2022-09-12T09:27:46;5.03;;;4.55;;
19946;SDS011;10135;50.702;7.276;2022-09-12T09:29:58;4.18;;;3.90;;
19946;SDS011;10135;50.702;7.276;2022-09-12T09:31:59;5.13;;;4.72;;
19946;SDS011;10135;50.702;7.276;2022-09-12T09:34:13;5.85;;;4.53;;
19946;SDS011;10135;50.702;7.276;2022-09-12T09:36:33;4.22;;;3.92;;
19946;SDS011;10135;50.702;7.276;2022-09-12T09:39:03;5.28;;;4.65;;
19946;SDS011;10135;50.702;7.276;2022-09-12T09:41:39;5.50;;;4.43;;
19946;SDS011;10135;50.702;7.276;2022-09-12T09:43:47;4.95;;;4.55;;
19946;SDS011;10135;50.702;7.276;2022-09-12T09:45:48;5.30;;;4.70;;
19946;SDS011;10135;50.702;7.276;2022-09-12T09:47:52;4.85;;;4.45;;
19946;SDS011;10135;50.702;7.276;2022-09-12T09:50:13;4.60;;;4.20;;
19946;SDS011;10135;50.702;7.276;2022-09-12T09:52:16;4.47;;;4.07;;
19946;SDS011;10135;50.702;7.276;2022-09-12T09:54:28;4.78;;;4.40;;
19946;SDS011;10135;50.702;7.276;2022-09-12T09:56:56;4.55;;;4.15;;
19946;SDS011;10135;50.702;7.276;2022-09-12T09:59:07;4.28;;;3.97;;
19946;SDS011;10135;50.702;7.276;2022-09-12T10:01:15;4.68;;;4.32;;
19946;SDS011;10135;50.702;7.276;2022-09-12T10:03:23;5.15;;;4.32;;
19946;SDS011;10135;50.702;7.276;2022-09-12T10:05:31;4.13;;;3.83;;
19946;SDS011;10135;50.702;7.276;2022-09-12T10:07:50;4.50;;;4.20;;
19946;SDS011;10135;50.702;7.276;2022-09-12T10:10:06;4.40;;;4.10;;
19946;SDS011;10135;50.702;7.276;2022-09-12T10:12:20;4.82;;;4.40;;
19946;SDS011;10135;50.702;7.276;2022-09-12T10:16:49;4.40;;;4.10;;
19946;SDS011;10135;50.702;7.276;2022-09-12T10:18:53;4.30;;;3.90;;
19946;SDS011;10135;50.702;7.276;2022-09-12T10:20:56;4.05;;;3.75;;
19946;SDS011;10135;50.702;7.276;2022-09-12T10:22:58;4.18;;;3.78;;
19946;SDS011;10135;50.702;7.276;2022-09-12T10:25:02;4.20;;;3.90;;
19946;SDS011;10135;50.702;7.276;2022-09-12T10:27:17;4.57;;;4.18;;
19946;SDS011;10135;50.702;7.276;2022-09-12T10:29:30;4.13;;;3.83;;
19946;SDS011;10135;50.702;7.276;2022-09-12T10:31:51;4.38;;;3.95;;
19946;SDS011;10135;50.702;7.276;2022-09-12T10:33:58;3.88;;;3.67;;
19946;SDS011;10135;50.702;7.276;2022-09-12T10:36:00;4.32;;;4.00;;
19946;SDS011;10135;50.702;7.276;2022-09-12T10:38:03;4.22;;;3.88;;
19946;SDS011;10135;50.702;7.276;2022-09-12T10:40:29;3.90;;;3.70;;
19946;SDS011;10135;50.702;7.276;2022-09-12T10:42:45;3.90;;;3.60;;
19946;SDS011;10135;50.702;7.276;2022-09-12T10:45:38;3.90;;;3.60;;
19946;SDS011;10135;50.702;7.276;2022-09-12T10:47:37;3.63;;;3.42;;
19946;SDS011;10135;50.702;7.276;2022-09-12T10:49:38;3.75;;;3.55;;
19946;SDS011;10135;50.702;7.276;2022-09-12T10:51:39;3.55;;;3.35;;
19946;SDS011;10135;50.702;7.276;2022-09-12T10:53:40;5.18;;;3.63;;
19946;SDS011;10135;50.702;7.276;2022-09-12T10:55:56;4.15;;;3.47;;
19946;SDS011;10135;50.702;7.276;2022-09-12T10:58:10;4.43;;;4.03;;
19946;SDS011;10135;50.702;7.276;2022-09-12T11:00:36;3.75;;;3.50;;
19946;SDS011;10135;50.702;7.276;2022-09-12T11:02:54;3.60;;;3.40;;
19946;SDS011;10135;50.702;7.276;2022-09-12T11:05:07;4.03;;;3.80;;
19946;SDS011;10135;50.702;7.276;2022-09-12T11:10:05;4.00;;;3.70;;
19946;SDS011;10135;50.702;7.276;2022-09-12T11:15:04;3.92;;;3.47;;
19946;SDS011;10135;50.702;7.276;2022-09-12T11:20:01;4.97;;;3.65;;
19946;SDS011;10135;50.702;7.276;2022-09-12T11:22:39;4.22;;;3.83;;
19946;SDS011;10135;50.702;7.276;2022-09-12T11:27:32;3.80;;;3.58;;
19946;SDS011;10135;50.702;7.276;2022-09-12T11:30:23;3.63;;;3.33;;
19946;SDS011;10135;50.702;7.276;2022-09-12T11:32:32;3.35;;;3.15;;
19946;SDS011;10135;50.702;7.276;2022-09-12T11:35:07;3.60;;;3.38;;
19946;SDS011;10135;50.702;7.276;2022-09-12T11:40:01;3.10;;;3.00;;
19946;SDS011;10135;50.702;7.276;2022-09-12T11:42:30;2.95;;;2.78;;
19946;SDS011;10135;50.702;7.276;2022-09-12T11:44:40;4.20;;;3.50;;
19946;SDS011;10135;50.702;7.276;2022-09-12T11:46:51;3.28;;;3.08;;
19946;SDS011;10135;50.702;7.276;2022-09-12T11:48:54;3.30;;;3.10;;
19946;SDS011;10135;50.702;7.276;2022-09-12T11:51:06;3.33;;;3.08;;
19946;SDS011;10135;50.702;7.276;2022-09-12T11:53:19;3.35;;;3.15;;
19946;SDS011;10135;50.702;7.276;2022-09-12T11:55:28;2.95;;;2.85;;
19946;SDS011;10135;50.702;7.276;2022-09-12T11:57:53;3.20;;;2.90;;
19946;SDS011;10135;50.702;7.276;2022-09-12T12:00:04;3.20;;;2.97;;
19946;SDS011;10135;50.702;7.276;2022-09-12T12:02:14;5.97;;;3.00;;
19946;SDS011;10135;50.702;7.276;2022-09-12T12:04:28;2.63;;;2.53;;
19946;SDS011;10135;50.702;7.276;2022-09-12T12:06:44;2.65;;;2.55;;
19946;SDS011;10135;50.702;7.276;2022-09-12T12:09:03;2.63;;;2.53;;
19946;SDS011;10135;50.702;7.276;2022-09-12T12:11:05;2.95;;;2.75;;
19946;SDS011;10135;50.702;7.276;2022-09-12T12:15:51;2.60;;;2.50;;
19946;SDS011;10135;50.702;7.276;2022-09-12T12:18:05;2.50;;;2.40;;
19946;SDS011;10135;50.702;7.276;2022-09-12T12:20:16;2.67;;;2.47;;
19946;SDS011;10135;50.702;7.276;2022-09-12T12:22:18;2.60;;;2.47;;
19946;SDS011;10135;50.702;7.276;2022-09-12T12:24:23;2.88;;;2.45;;
19946;SDS011;10135;50.702;7.276;2022-09-12T12:30:57;2.50;;;2.40;;
19946;SDS011;10135;50.702;7.276;2022-09-12T12:33:00;2.70;;;2.60;;
19946;SDS011;10135;50.702;7.276;2022-09-12T12:38:03;2.47;;;2.38;;
19946;SDS011;10135;50.702;7.276;2022-09-12T12:40:28;2.33;;;2.28;;
19946;SDS011;10135;50.702;7.276;2022-09-12T12:46:43;2.50;;;2.38;;
19946;SDS011;10135;50.702;7.276;2022-09-12T12:49:22;2.13;;;1.90;;
19946;SDS011;10135;50.702;7.276;2022-09-12T12:53:42;1.98;;;1.98;;
19946;SDS011;10135;50.702;7.276;2022-09-12T12:57:47;2.38;;;2.03;;
19946;SDS011;10135;50.702;7.276;2022-09-12T13:01:58;1.70;;;1.70;;
19946;SDS011;10135;50.702;7.276;2022-09-12T13:04:01;1.90;;;1.80;;
19946;SDS011;10135;50.702;7.276;2022-09-12T13:08:58;1.80;;;1.80;;
19946;SDS011;10135;50.702;7.276;2022-09-12T13:11:09;1.98;;;1.98;;
19946;SDS011;10135;50.702;7.276;2022-09-12T13:13:20;2.20;;;2.10;;
19946;SDS011;10135;50.702;7.276;2022-09-12T13:17:37;2.47;;;2.38;;
19946;SDS011;10135;50.702;7.276;2022-09-12T13:19:42;2.63;;;2.50;;
19946;SDS011;10135;50.702;7.276;2022-09-12T13:21:56;2.80;;;2.60;;
19946;SDS011;10135;50.702;7.276;2022-09-12T13:24:10;2.70;;;2.60;;
19946;SDS011;10135;50.702;7.276;2022-09-12T13:26:21;2.95;;;2.70;;
19946;SDS011;10135;50.702;7.276;2022-09-12T13:28:27;2.70;;;2.60;;
19946;SDS011;10135;50.702;7.276;2022-09-12T13:30:31;2.85;;;2.75;;
19946;SDS011;10135;50.702;7.276;2022-09-12T13:32:35;3.25;;;2.63;;
19946;SDS011;10135;50.702;7.276;2022-09-12T13:37:36;2.83;;;2.72;;
19946;SDS011;10135;50.702;7.276;2022-09-12T13:44:49;2.65;;;2.55;;
19946;SDS011;10135;50.702;7.276;2022-09-12T13:46:58;3.10;;;2.90;;
19946;SDS011;10135;50.702;7.276;2022-09-12T13:49:05;3.30;;;2.80;;
19946;SDS011;10135;50.702;7.276;2022-09-12T13:51:26;2.88;;;2.75;;
19946;SDS011;10135;50.702;7.276;2022-09-12T13:53:41;3.15;;;2.80;;
19946;SDS011;10135;50.702;7.276;2022-09-12T13:55:46;3.20;;;3.00;;
19946;SDS011;10135;50.702;7.276;2022-09-12T13:57:57;2.55;;;2.30;;
19946;SDS011;10135;50.702;7.276;2022-09-12T14:00:16;2.85;;;2.75;;
19946;SDS011;10135;50.702;7.276;2022-09-12T14:02:20;3.10;;;2.90;;
19946;SDS011;10135;50.702;7.276;2022-09-12T14:04:24;2.85;;;2.75;;
19946;SDS011;10135;50.702;7.276;2022-09-12T14:06:45;2.95;;;2.78;;
19946;SDS011;10135;50.702;7.276;2022-09-12T14:08:49;2.75;;;2.65;;
19946;SDS011;10135;50.702;7.276;2022-09-12T14:10:50;2.80;;;2.70;;
19946;SDS011;10135;50.702;7.276;2022-09-12T14:12:53;2.80;;;2.70;;
19946;SDS011;10135;50.702;7.276;2022-09-12T14:14:56;2.60;;;2.50;;
19946;SDS011;10135;50.702;7.276;2022-09-12T14:16:57;2.72;;;2.55;;
19946;SDS011;10135;50.702;7.276;2022-09-12T14:18:59;2.90;;;2.80;;
19946;SDS011;10135;50.702;7.276;2022-09-12T14:21:06;3.05;;;2.72;;
19946;SDS011;10135;50.702;7.276;2022-09-12T14:23:28;2.90;;;2.80;;
19946;SDS011;10135;50.702;7.276;2022-09-12T14:25:36;2.60;;;2.50;;
19946;SDS011;10135;50.702;7.276;2022-09-12T14:27:46;2.78;;;2.63;;
19946;SDS011;10135;50.702;7.276;2022-09-12T14:30:05;2.70;;;2.60;;
19946;SDS011;10135;50.702;7.276;2022-09-12T14:32:31;2.83;;;2.63;;
19946;SDS011;10135;50.702;7.276;2022-09-12T14:34:32;2.72;;;2.63;;
19946;SDS011;10135;50.702;7.276;2022-09-12T14:36:34;2.70;;;2.60;;
19946;SDS011;10135;50.702;7.276;2022-09-12T14:38:51;3.10;;;2.90;;
19946;SDS011;10135;50.702;7.276;2022-09-12T14:41:05;2.97;;;2.83;;
19946;SDS011;10135;50.702;7.276;2022-09-12T14:43:31;2.75;;;2.65;;
19946;SDS011;10135;50.702;7.276;2022-09-12T14:45:35;2.85;;;2.65;;
19946;SDS011;10135;50.702;7.276;2022-09-12T14:47:39;2.78;;;2.60;;
19946;SDS011;10135;50.702;7.276;2022-09-12T14:49:46;2.42;;;2.33;;
19946;SDS011;10135;50.702;7.276;2022-09-12T14:53:51;2.80;;;2.70;;
19946;SDS011;10135;50.702;7.276;2022-09-12T14:56:09;2.83;;;2.70;;
19946;SDS011;10135;50.702;7.276;2022-09-12T14:58:30;2.70;;;2.55;;
19946;SDS011;10135;50.702;7.276;2022-09-12T15:00:30;2.50;;;2.40;;
19946;SDS011;10135;50.702;7.276;2022-09-12T15:02:32;2.70;;;2.60;;
19946;SDS011;10135;50.702;7.276;2022-09-12T15:04:36;2.53;;;2.42;;
19946;SDS011;10135;50.702;7.276;2022-09-12T15:06:46;2.90;;;2.72;;
19946;SDS011;10135;50.702;7.276;2022-09-12T15:08:46;2.80;;;2.45;;
19946;SDS011;10135;50.702;7.276;2022-09-12T15:10:47;2.60;;;2.50;;
19946;SDS011;10135;50.702;7.276;2022-09-12T15:12:50;2.55;;;2.45;;
19946;SDS011;10135;50.702;7.276;2022-09-12T15:15:16;2.72;;;2.63;;
19946;SDS011;10135;50.702;7.276;2022-09-12T15:17:19;2.47;;;2.40;;
19946;SDS011;10135;50.702;7.276;2022-09-12T15:19:20;3.13;;;2.50;;
19946;SDS011;10135;50.702;7.276;2022-09-12T15:21:21;2.60;;;2.50;;
19946;SDS011;10135;50.702;7.276;2022-09-12T15:25:46;2.80;;;2.70;;
19946;SDS011;10135;50.702;7.276;2022-09-12T15:27:49;2.90;;;2.70;;
19946;SDS011;10135;50.702;7.276;2022-09-12T15:29:52;2.92;;;2.53;;
19946;SDS011;10135;50.702;7.276;2022-09-12T15:31:53;2.53;;;2.42;;
19946;SDS011;10135;50.702;7.276;2022-09-12T15:33:54;2.47;;;2.38;;
19946;SDS011;10135;50.702;7.276;2022-09-12T15:35:58;2.45;;;2.35;;
19946;SDS011;10135;50.702;7.276;2022-09-12T15:37:58;2.38;;;2.28;;
19946;SDS011;10135;50.702;7.276;2022-09-12T15:39:59;3.28;;;2.40;;
19946;SDS011;10135;50.702;7.276;2022-09-12T15:42:00;2.40;;;2.30;;
19946;SDS011;10135;50.702;7.276;2022-09-12T15:44:05;2.40;;;2.30;;
19946;SDS011;10135;50.702;7.276;2022-09-12T15:46:11;2.42;;;2.33;;
19946;SDS011;10135;50.702;7.276;2022-09-12T15:48:14;2.30;;;2.20;;
19946;SDS011;10135;50.702;7.276;2022-09-12T15:50:14;2.30;;;2.20;;
19946;SDS011;10135;50.702;7.276;2022-09-12T15:52:15;2.70;;;2.50;;
19946;SDS011;10135;50.702;7.276;2022-09-12T15:54:16;4.93;;;3.08;;
19946;SDS011;10135;50.702;7.276;2022-09-12T15:56:19;2.58;;;2.38;;
19946;SDS011;10135;50.702;7.276;2022-09-12T15:58:21;2.40;;;2.30;;
19946;SDS011;10135;50.702;7.276;2022-09-12T16:00:22;3.47;;;2.60;;
19946;SDS011;10135;50.702;7.276;2022-09-12T16:02:23;2.40;;;2.30;;
19946;SDS011;10135;50.702;7.276;2022-09-12T16:04:24;2.55;;;2.40;;
19946;SDS011;10135;50.702;7.276;2022-09-12T16:06:28;2.95;;;2.65;;
19946;SDS011;10135;50.702;7.276;2022-09-12T16:08:30;2.92;;;2.28;;
19946;SDS011;10135;50.702;7.276;2022-09-12T16:10:31;2.35;;;2.20;;
19946;SDS011;10135;50.702;7.276;2022-09-12T16:12:31;3.63;;;2.75;;
19946;SDS011;10135;50.702;7.276;2022-09-12T16:14:32;2.42;;;2.33;;
19946;SDS011;10135;50.702;7.276;2022-09-12T16:16:33;3.38;;;2.03;;
19946;SDS011;10135;50.702;7.276;2022-09-12T16:18:33;2.55;;;2.30;;
19946;SDS011;10135;50.702;7.276;2022-09-12T16:20:34;2.28;;;2.20;;
19946;SDS011;10135;50.702;7.276;2022-09-12T16:22:38;2.33;;;2.20;;
19946;SDS011;10135;50.702;7.276;2022-09-12T16:24:39;2.45;;;2.30;;
19946;SDS011;10135;50.702;7.276;2022-09-12T16:26:40;2.38;;;2.22;;
19946;SDS011;10135;50.702;7.276;2022-09-12T16:28:40;2.63;;;2.03;;
19946;SDS011;10135;50.702;7.276;2022-09-12T16:30:41;2.53;;;2.33;;
19946;SDS011;10135;50.702;7.276;2022-09-12T16:32:42;2.50;;;2.30;;
19946;SDS011;10135;50.702;7.276;2022-09-12T16:34:42;3.22;;;2.20;;
19946;SDS011;10135;50.702;7.276;2022-09-12T16:36:43;2.00;;;1.90;;
19946;SDS011;10135;50.702;7.276;2022-09-12T16:38:45;2.55;;;2.30;;
19946;SDS011;10135;50.702;7.276;2022-09-12T16:40:51;1.95;;;1.90;;
19946;SDS011;10135;50.702;7.276;2022-09-12T16:43:00;2.58;;;2.20;;
19946;SDS011;10135;50.702;7.276;2022-09-12T16:45:00;1.88;;;1.88;;
19946;SDS011;10135;50.702;7.276;2022-09-12T16:47:01;2.50;;;2.30;;
19946;SDS011;10135;50.702;7.276;2022-09-12T16:49:03;1.92;;;1.83;;
19946;SDS011;10135;50.702;7.276;2022-09-12T16:51:05;1.98;;;1.70;;
19946;SDS011;10135;50.702;7.276;2022-09-12T16:53:06;1.95;;;1.85;;
19946;SDS011;10135;50.702;7.276;2022-09-12T16:55:06;2.22;;;1.70;;
19946;SDS011;10135;50.702;7.276;2022-09-12T16:57:07;2.13;;;1.80;;
19946;SDS011;10135;50.702;7.276;2022-09-12T16:59:09;7.60;;;5.85;;
19946;SDS011;10135;50.702;7.276;2022-09-12T17:01:14;3.40;;;3.20;;
19946;SDS011;10135;50.702;7.276;2022-09-12T17:03:17;3.13;;;2.63;;
19946;SDS011;10135;50.702;7.276;2022-09-12T17:05:17;2.60;;;2.40;;
19946;SDS011;10135;50.702;7.276;2022-09-12T17:07:19;2.63;;;2.42;;
19946;SDS011;10135;50.702;7.276;2022-09-12T17:09:20;2.20;;;2.10;;
19946;SDS011;10135;50.702;7.276;2022-09-12T17:11:25;2.05;;;1.95;;
19946;SDS011;10135;50.702;7.276;2022-09-12T17:13:29;2.10;;;2.00;;
19946;SDS011;10135;50.702;7.276;2022-09-12T17:15:30;2.80;;;2.00;;
19946;SDS011;10135;50.702;7.276;2022-09-12T17:17:31;1.85;;;1.75;;
19946;SDS011;10135;50.702;7.276;2022-09-12T17:19:31;1.75;;;1.65;;
19946;SDS011;10135;50.702;7.276;2022-09-12T17:21:32;1.90;;;1.80;;
19946;SDS011;10135;50.702;7.276;2022-09-12T17:23:34;1.90;;;1.90;;
19946;SDS011;10135;50.702;7.276;2022-09-12T17:25:35;1.95;;;1.85;;
19946;SDS011;10135;50.702;7.276;2022-09-12T17:27:36;1.98;;;1.88;;
19946;SDS011;10135;50.702;7.276;2022-09-12T17:29:37;2.55;;;2.30;;
19946;SDS011;10135;50.702;7.276;2022-09-12T17:31:37;2.78;;;1.80;;
19946;SDS011;10135;50.702;7.276;2022-09-12T17:33:39;2.03;;;1.92;;
19946;SDS011;10135;50.702;7.276;2022-09-12T17:35:40;2.10;;;2.00;;
19946;SDS011;10135;50.702;7.276;2022-09-12T17:37:41;2.10;;;2.05;;
19946;SDS011;10135;50.702;7.276;2022-09-12T17:39:42;2.42;;;2.00;;
19946;SDS011;10135;50.702;7.276;2022-09-12T17:41:42;2.40;;;2.30;;
19946;SDS011;10135;50.702;7.276;2022-09-12T17:43:46;1.80;;;1.70;;
19946;SDS011;10135;50.702;7.276;2022-09-12T17:45:54;2.03;;;1.92;;
19946;SDS011;10135;50.702;7.276;2022-09-12T17:47:56;1.80;;;1.80;;
19946;SDS011;10135;50.702;7.276;2022-09-12T17:49:57;1.83;;;1.73;;
19946;SDS011;10135;50.702;7.276;2022-09-12T17:51:59;2.05;;;1.98;;
19946;SDS011;10135;50.702;7.276;2022-09-12T17:54:03;1.77;;;1.77;;
19946;SDS011;10135;50.702;7.276;2022-09-12T17:56:11;2.00;;;1.90;;
19946;SDS011;10135;50.702;7.276;2022-09-12T17:58:12;3.42;;;2.30;;
19946;SDS011;10135;50.702;7.276;2022-09-12T18:00:13;2.28;;;2.17;;
19946;SDS011;10135;50.702;7.276;2022-09-12T18:02:14;2.20;;;2.10;;
19946;SDS011;10135;50.702;7.276;2022-09-12T18:04:15;2.00;;;1.90;;
19946;SDS011;10135;50.702;7.276;2022-09-12T18:06:17;2.30;;;2.20;;
19946;SDS011;10135;50.702;7.276;2022-09-12T18:08:18;1.70;;;1.70;;
19946;SDS011;10135;50.702;7.276;2022-09-12T18:10:20;2.00;;;1.90;;
19946;SDS011;10135;50.702;7.276;2022-09-12T18:12:20;2.10;;;2.05;;
19946;SDS011;10135;50.702;7.276;2022-09-12T18:14:21;1.80;;;1.80;;
19946;SDS011;10135;50.702;7.276;2022-09-12T18:16:22;2.30;;;2.10;;
19946;SDS011;10135;50.702;7.276;2022-09-12T18:18:23;3.15;;;2.00;;
19946;SDS011;10135;50.702;7.276;2022-09-12T18:20:23;1.67;;;1.67;;
19946;SDS011;10135;50.702;7.276;2022-09-12T18:22:24;2.30;;;2.10;;
19946;SDS011;10135;50.702;7.276;2022-09-12T18:24:25;2.53;;;2.33;;
19946;SDS011;10135;50.702;7.276;2022-09-12T18:26:26;13.05;;;2.22;;
19946;SDS011;10135;50.702;7.276;2022-09-12T18:28:30;2.17;;;1.98;;
19946;SDS011;10135;50.702;7.276;2022-09-12T18:30:36;2.20;;;2.08;;
19946;SDS011;10135;50.702;7.276;2022-09-12T18:32:37;2.22;;;2.13;;
19946;SDS011;10135;50.702;7.276;2022-09-12T18:34:38;2.00;;;1.85;;
19946;SDS011;10135;50.702;7.276;2022-09-12T18:36:42;1.88;;;1.77;;
19946;SDS011;10135;50.702;7.276;2022-09-12T18:38:45;2.00;;;1.90;;
19946;SDS011;10135;50.702;7.276;2022-09-12T18:40:47;2.25;;;2.15;;
19946;SDS011;10135;50.702;7.276;2022-09-12T18:42:48;2.97;;;2.03;;
19946;SDS011;10135;50.702;7.276;2022-09-12T18:44:48;2.03;;;1.92;;
19946;SDS011;10135;50.702;7.276;2022-09-12T18:46:49;2.00;;;1.90;;
19946;SDS011;10135;50.702;7.276;2022-09-12T18:48:50;2.20;;;2.10;;
19946;SDS011;10135;50.702;7.276;2022-09-12T18:50:50;2.50;;;2.30;;
19946;SDS011;10135;50.702;7.276;2022-09-12T18:52:51;2.30;;;2.20;;
19946;SDS011;10135;50.702;7.276;2022-09-12T18:54:53;1.92;;;1.83;;
19946;SDS011;10135;50.702;7.276;2022-09-12T18:56:53;1.90;;;1.80;;
19946;SDS011;10135;50.702;7.276;2022-09-12T18:58:54;2.10;;;2.00;;
19946;SDS011;10135;50.702;7.276;2022-09-12T19:00:56;1.90;;;1.80;;
19946;SDS011;10135;50.702;7.276;2022-09-12T19:02:57;1.90;;;1.80;;
19946;SDS011;10135;50.702;7.276;2022-09-12T19:04:58;2.17;;;2.03;;
19946;SDS011;10135;50.702;7.276;2022-09-12T19:06:58;2.42;;;1.95;;
19946;SDS011;10135;50.702;7.276;2022-09-12T19:09:00;2.55;;;2.30;;
19946;SDS011;10135;50.702;7.276;2022-09-12T19:11:02;2.20;;;2.00;;
19946;SDS011;10135;50.702;7.276;2022-09-12T19:13:04;1.70;;;1.70;;